Terminal Aerodrome Forecast
Issued by NWS

Home | Current Version | Previous Version | Text Only | Print | Product List | Glossary On
Versions: 1 2 3 4 5 6 7 8 9 10 11 12 13 14 15 16 17 18 19
000
FTUS41 KPBZ 281354 AAA
TAFBVI
TAF AMD
KBVI 281354Z 2814/2912 29003KT 4SM -SHRA BR OVC015
      TEMPO 2814/2816 2SM -SHRA BR BKN002
     FM281600 32005KT 6SM -SHRA BR OVC008
     FM282000 33008KT P6SM OVC015
     FM290300 33005KT P6SM OVC008=

USA.gov is the U.S. government's official web portal to all federal, state and local government web resources and services.